18ème Meeting de LYON Natation Métropole

Départementale

LYON

Du Vendredi 10 Mars 2017 au Dimanche 12 Mars 2017

Bassin de 50m

100 Papillon Dames

Séries

Nom Année Club Pays Temps Points Niv.
1 ODIN Angelique 1998 CN BERRE MIXTES FRA 1:06:15 1108
2 WEHRLI Laurence 1997 CN BERRE MIXTES FRA 1:06:19 1107
3 JEANNERET Valentine 1999 CN CHALON-SUR-SAONE FRA 1:06:23 1106
4 STABLES Sophie 2000 CN BERRE MIXTES FRA 1:06:80 1090
5 MC CONNACHY Lauren 2002 CN BERRE MIXTES FRA 1:09:00 1030
6 CORTE Illona 2002 CLUB DE NATATION DE SASSENAGE FRA 1:09:49 1017
7 LAGOUCHE Romane 2000 LYON NATATION FRA 1:10:41 993
8 COTTING Johana 2001 CN BERRE MIXTES FRA 1:10:71 985
9 AURAY Juliette 2000 LYON NATATION FRA 1:10:91 980
10 TAVERNIER Manon 1999 CN CHALON-SUR-SAONE FRA 1:10:96 979
11 GAUTIER Lou 2000 US ST-EGRÈVE FRA 1:11:19 973
12 RONGIER Chloe 2001 CN BOURG-EN-BRESSE FRA 1:11:24 971
13 HERANNEY Chloe 2001 US SOCHAUX NATATION FRA 1:11:37 968
14 HERANNEY Aude 2001 US SOCHAUX NATATION FRA 1:11:55 963
15 VICARY Ana 2001 CN BERRE MIXTES FRA 1:11:59 962
16 MAITRE Camille 2001 DAUPHINS ROMANS PÉAGOIS FRA 1:11:92 954
17 MONSIAUD Jade 2001 LYON NATATION FRA 1:11:95 953
18 DI BISCEGLIE Marjorie 1999 NAUTIC CLUB ALP'38 FRA 1:11:98 952
19 DEJOUX Manon 1997 NAUTIC CLUB ALP'38 FRA 1:12:12 949
20 FOX Madeline 2000 CN BERRE MIXTES FRA 1:12:27 945
21 BONNEVAY Emma 2000 LYON NATATION FRA 1:12:31 944
22 DIOP Oumy 2003 GRENOBLE NATATION FRA 1:12:52 938
23 SZYBOWSKI Alexandra 2003 EMS BRON FRA 1:12:54 938
24 BASCON Paloma 2001 NAUTIC CLUB ALP'38 FRA 1:12:75 932
25 SINAPIN Elodie 2000 LYON NATATION FRA 1:12:76 932
26 TIKOURE Melyssa 2003 NAUTIC CLUB ALP'38 FRA 1:13:01 926
27 MISZEZUK Laurine 2001 NAUTIC CLUB ALP'38 FRA 1:13:20 921
28 CLAUS Saya 2002 CN BERRE MIXTES FRA 1:13:87 904
29 BOUDERIAT Camille 1999 CN BERRE MIXTES FRA 1:14:26 894
30 VOSSIER Chloe 2002 DAUPHINS ROMANS PÉAGOIS FRA 1:14:56 887
31 LEUBA Mathilde 2003 CN BERRE MIXTES FRA 1:14:60 886
32 PENNE Fiona 2002 NAUTIC CLUB ALP'38 FRA 1:14:69 884
33 AUGIER Celia 2002 DAUPHINS ROMANS PÉAGOIS FRA 1:15:56 862
34 GALLE Flavie 2002 CN BOURG-EN-BRESSE FRA 1:15:81 856
35 LESURTEL Romane 2002 LYON NATATION FRA 1:15:86 855
36 N GUYEN DUC LONG Paolina 2003 CN BOURG-EN-BRESSE FRA 1:16:53 839
37 DUCHENES Marion 2003 EMS BRON FRA 1:17:35 819
38 CREUSOT Emy 2002 A.S MONTBELIARD NATATION FRA 1:17:55 814
39 BOISTE Chloe 2002 CN BOURG-EN-BRESSE FRA 1:18:96 781
40 AUGIER Ysaline 2000 DAUPHINS ROMANS PÉAGOIS FRA 1:19:68 764
41 MEHIGUENI Imane 2000 US SOCHAUX NATATION FRA 1:19:84 761
42 MESSEDAA Lea 2003 CN BOURG-EN-BRESSE FRA 1:20:43 747
43 SCHALLER-THOORIS Celine 1997 US ST-EGRÈVE FRA 1:20:87 737
44 RENAUD Maëva 2001 US SOCHAUX NATATION FRA 1:21:24 729
45 MAES Joséphine 2003 LYON NATATION FRA 1:21:82 716
46 COMTE Cristina 2003 LYON NATATION FRA 1:22:26 706
47 BACOT Charlene 2000 MIGENNES NATATION FRA 1:22:88 692
48 CHERET Juliette 2003 LYON NATATION FRA 1:23:02 689
49 BOIZOT Manon 2000 AS FONTAINE NATATION FRA 1:23:29 683
50 COMBE Julie 2003 NAUTIC CLUB ALP'38 FRA 1:25:07 645
51 GUIGON Salome 2002 A.S MONTBELIARD NATATION FRA 1:25:11 644
52 BAUER Emma 2001 CLUB NAUTIQUE PORTE DE L'ISERE FRA 1:26:77 610
53 BALMONT Mathilde 1999 CERCLE DES NAGEURS VOIRONNAIS FRA 1:27:76 589
54 SPADA Ornella 2003 AS FONTAINE NATATION FRA 1:28:76 569
55 PIERREJEAN Tiffany 2003 SR CERNAY FRA 1:28:91 566
56 MONGELLAZ Maelys 2001 CN MOIRANS FRA 1:30:40 537
57 MARTHELY Jessica 2003 US ST-EGRÈVE FRA 1:35:79 438
58 DUSSAUD Lena 2003 CN MOIRANS FRA 1:42:02 336

Finale A

Nom Année Club Pays Temps Points Niv.
1 JEANNERET Valentine 1999 CN CHALON-SUR-SAONE FRA 1:05:27 1133
2 ODIN Angelique 1998 CN BERRE MIXTES FRA 1:05:81 1117
3 WEHRLI Laurence 1997 CN BERRE MIXTES FRA 1:06:12 1109
4 STABLES Sophie 2000 CN BERRE MIXTES FRA 1:06:18 1107
5 CORTE Illona 2002 CLUB DE NATATION DE SASSENAGE FRA 1:10:34 995
6 MC CONNACHY Lauren 2002 CN BERRE MIXTES FRA 1:10:36 994
7 COTTING Johana 2001 CN BERRE MIXTES FRA 1:12:65 935
8 AURAY Juliette 2000 LYON NATATION FRA 1:14:57 887

Finale B

Nom Année Club Pays Temps Points Niv.
1 TAVERNIER Manon 1999 CN CHALON-SUR-SAONE FRA 1:10:72 985
2 DI BISCEGLIE Marjorie 1999 NAUTIC CLUB ALP'38 FRA 1:10:81 982
3 HERANNEY Aude 2001 US SOCHAUX NATATION FRA 1:11:31 969
4 RONGIER Chloe 2001 CN BOURG-EN-BRESSE FRA 1:11:73 959
5 GAUTIER Lou 2000 US ST-EGRÈVE FRA 1:11:81 956
6 VICARY Ana 2001 CN BERRE MIXTES FRA 1:12:59 936
7 MAITRE Camille 2001 DAUPHINS ROMANS PÉAGOIS FRA 1:13:78 906
8 HERANNEY Chloe 2001 US SOCHAUX NATATION FRA 1:13:88 904

Finale C

Nom Année Club Pays Temps Points Niv.
1 SINAPIN Elodie 2000 LYON NATATION FRA 1:10:57 989
2 FOX Madeline 2000 CN BERRE MIXTES FRA 1:11:05 976
3 TIKOURE Melyssa 2003 NAUTIC CLUB ALP'38 FRA 1:11:21 972
4 BASCON Paloma 2001 NAUTIC CLUB ALP'38 FRA 1:11:67 960
5 SZYBOWSKI Alexandra 2003 EMS BRON FRA 1:12:88 929
6 DIOP Oumy 2003 GRENOBLE NATATION FRA 1:12:93 928
7 MISZEZUK Laurine 2001 NAUTIC CLUB ALP'38 FRA 1:13:32 918
8 BONNEVAY Emma 2000 LYON NATATION FRA 1:13:35 917